x

East Dellwood (46207) Wave Buoy

4:00pm - Thu 23rd Feb 2017 All times are PST. -8 hours from GMT.

  • Sig Wave height 5.9ft
  • Peak Period 16s
  • Wind
    18mph, 22mph gusts
  • Sea Temp 47°f
  • Air Temp 50°f
  • Sea Pressure 1025.3mb
  • East Dellwood
  • East Dellwood

More Historic Weather Station data

Upgrade to MSW Pro to gain access to the past 30 days of data for over 8000 Wavebouys and Weather Stations around the globe.

Join Pro

Comparision Forecast

View Surf forecast
   
Thu 02/23 4:00pm 6ft 16s 18 22 mph 1025.3mb 47f 50f
3:00pm 6.5ft 16s 18 20 mph 1025.8mb 47f 50f
2:00pm 6ft 16s 16 18 mph 1026.2mb 47f 50f
1:00pm 6ft 16s 11 16 mph 1026.3mb 47f 49f
12:00pm 6ft 8s 13 18 mph 1026.3mb 47f 49f
11:00am 5.5ft 16s 16 20 mph 1026.7mb 47f 49f
10:00am 5.5ft 10s 13 20 mph 1027.2mb 47f 49f
9:00am 5.5ft 10s 11 16 mph 1027.4mb 47f 49f
8:00am 6ft 10s 13 16 mph 1026.8mb 47f 49f
7:00am 6ft 10s 13 16 mph 1026.3mb 47f 48f
6:00am 6ft 10s 13 18 mph 1026.2mb 47f 49f
5:00am 6ft 10s 11 16 mph 1026.3mb 47f 50f
4:00am 7ft 9s 13 18 mph 1026.4mb 47f 48f
3:00am 7ft 10s 13 18 mph 1026.6mb 47f 48f
2:00am 6.5ft 10s 20 27 mph 1026.6mb 47f 49f
Wed 02/22 2:00am 7ft 7s 22 27 mph 1021.3mb 47f 48f
1:00am 6ft 6s 4 13 mph 1021.4mb 47f 47f
12:00am 6ft 14s 18 25 mph 1020.9mb 47f 47f
Tue 02/21 11:00pm 5.5ft 14s 13 18 mph 1020.6mb 47f 47f
10:00pm 6ft 11s 18 22 mph 1020mb 47f 48f
9:00pm 6ft 14s 11 16 mph 1019.6mb 47f 48f
8:00pm 5.5ft 11s 11 20 mph 1019.1mb 47f 49f
7:00pm 5.5ft 11s 11 16 mph 1018.7mb 47f 49f
6:00pm 6ft 7s 9 11 mph 1018.4mb 47f 49f
4:00pm 7ft 11s 20 29 mph 1017.4mb 47f 49f
3:00pm 7ft 11s 16 20 mph 1017mb 47f 50f
2:00pm 7ft 6s 20 31 mph 1016.3mb 47f 49f
1:00pm 7ft 11s 20 27 mph 1015.6mb 47f 49f
12:00pm 6.5ft 11s 18 22 mph 1015.1mb 47f 50f
11:00am 6ft 11s 20 22 mph 1014mb 47f 50f
10:00am 6ft 11s 22 29 mph 1012.8mb 47f 50f
9:00am 5ft 12s 18 22 mph 1012.2mb 47f 49f
8:00am 5ft 10s 18 22 mph 1011.6mb 47f 49f
7:00am 5.5ft 11s 7 9 mph 1011.1mb 47f 47f
6:00am 5ft 11s 18 25 mph 1010.3mb 47f 50f
5:00am 5ft 11s 20
mph
1009.8mb 46f 50f
4:00am 5.5ft 12s 18 27 mph 1009.5mb 46f 49f
3:00am 6ft 12s 16 18 mph 1009mb 46f 50f
2:00am 6ft 12s 16 20 mph 1008.7mb 47f 49f
1:00am 6ft 12s 13 16 mph 1008mb 46f 50f
12:00am 6ft 11s 18 20 mph 1007.5mb 46f 49f
Mon 02/20 11:00pm 6.5ft 12s 7 9 mph 1007.2mb 47f 50f
10:00pm 6ft 12s 11 13 mph 1007mb 47f 49f
9:00pm 6ft 11s 20 29 mph 1006.4mb 47f 49f
8:00pm 6ft 12s 11 16 mph 1006.3mb 47f 50f
7:00pm 7ft 11s 11 16 mph 1006.1mb 47f 50f
6:00pm 7ft 12s 20 22 mph 1005.4mb 47f 49f
5:00pm 6.5ft 12s 16 20 mph 1005mb 47f 50f
4:00pm 6.5ft 13s 16 20 mph 1004.7mb 47f 50f
3:00pm 7.5ft 12s 16 18 mph 1004.1mb 47f 50f
2:00pm 8ft 13s 13 16 mph 1003.6mb 47f 50f
1:00pm 8ft 12s 13 18 mph 1003.4mb 47f 50f
12:00pm 8ft 14s 7 9 mph 1003.3mb 47f 49f
11:00am 8ft 14s 4 9 mph 1002.8mb 46f 49f
10:00am 7ft 12s 13 18 mph 1001.8mb 46f 48f
9:00am 7ft 12s 11 16 mph 1001.3mb 47f 48f
8:00am 8ft 13s 18 22 mph 1000.6mb 47f 48f
7:00am 7ft 14s 18 22 mph 1000.1mb 47f 48f
6:00am 6.5ft 14s 4 9 mph 1000.1mb 47f 49f
5:00am 6ft 14s 4 9 mph 1000mb 47f 49f
4:00am 8ft 14s 22 27 mph 999.7mb 47f 48f
3:00am 8ft 14s 13 18 mph 1000mb 47f 50f
2:00am 8ft 14s 11 18 mph 1000mb 47f 50f